Saturday, June 25, 2016
06:54 UTC
  |  Log In   |  Register Free
Airport Search:

Rwj Airpark Airport
(54T)

Rwj Airpark Airport Diagram
No Airport Diagram Available

FAA data valid effective May 26 2016 - Jul 21 2016 (unless otherwise noted).

 
 
 
 
 
 
 
 
 
 
 
 
 
 
Current Aviation Weather for 54T

Weather Summary


Current weather conditions are not available for 54T - The nearest NOAA weather station is at EFD, (18.7 nm SW from 54T)

The most recent METAR observation for 54T was updated at: 12:50 UTC
METAR for 54T is not available. Closest METAR is for KHOU 23.6 nm NE
KHOU  (23.6 nm NE)   (most recent observation was updated at 25:05 UTC)
250553Z 00000KT 10SM FEW025 SCT250 27/24 A3002

KLVJ  (25.2 nm NE)   (most recent observation was updated at 25:05 UTC)
250553Z AUTO 13003KT 10SM CLR 28/24 A3004 RMK AO2 SLP171 T02830244 10322 20278 403440244 50006

TAF for 54T is not available.
KEFD
250400Z 2504/2610 14006KT 9999 FEW025 QNH3000INS BECMG 2514/2515 16009KT 9000 VCSH BKN025 QNH3002INS TEMPO 2518/2523 15009KT 8000 -TSRA BKN020CB BECMG 2522/2523 15006KT 9999 NSW SCT250 QNH3007INS TX32/2520Z TN22/2508Z

KHOU  (23.6 nm NE)   (most recent observation was updatred at 25:05 UTC)
250538Z 2506/2606 15004KT P6SM FEW025 SCT250 FM251500 16008KT P6SM VCSH SCT027 TEMPO 2519/2523 SHRA BKN040 BKN250 FM252300 15006KT P6SM SCT250


KIAH  (29.0 nm SE)   (most recent observation was updatred at 25:05 UTC)
250538Z 2506/2612 15004KT P6SM FEW025 SCT250 FM251500 16008KT P6SM VCSH SCT030 TEMPO 2519/2523 SHRA BKN045 BKN250 FM260100 15006KT P6SM SCT250
GlobalAir.com is loading additional information.
 Current Weather at EFD
84.0 F° (29.0 C°)

Southeast winds at 3.5 mph
Pressure:
30.05 in
Humidity:
74%
Wind:
Southeast at 3.5 mph
Dew Point:
75.2 F° (24.0 C°)
Visibility:
10.00 mi
54T NOAA Radar




Find All Airport Services Find A Hotel Find A Rental Car Find A Golf Course Find A Restaurant $100 Hamburger



Airport Weather Forecast for 54T

Translated METAR for KEFD (0550 UTC)
METAR:
KEFD 250550Z 13003KT 10SM FEW025 SCT250 28/23 A3005
Conditions at:
KEFD (Ellington, TX) observed 0550 UTC 25 June 2016
Temperature:
28°C (82.4°F)
Dewpoint:
23°C (73.4°F) [RH = 74.3]
Pressure:
30.05 inches Hg (1017.6 mb)
Winds:
from the SE (130 degrees) at 3.5 mph (3 knots: 1.5 m/s)
Visibility:
10 mile(s)
Ceiling:
at least 12,000 feet AGL
Clouds:
Few Clouds at 2,500 feet AGL
Scattered Clouds at 25,000 feet AGL
Remarks:

Translated TAF for KEFD (Ellington, TX) (0400 UTC)
TAF text:
KEFD 250400Z 2504/2610 14006KT 9999 FEW025 QNH3000INS BECMG 2514/2515 16009KT 9000 VCSH BKN025 QNH3002INS
Forecast period:
Saturday Jun 25 2016 04:00 UTC - Sunday Jun 26 2016 10:00 UTC
Forecast type:
FROM: standard forecast or significant change
Winds:
from the SSE (160 degrees) at 10.4 mph (9 knots: 4.6 m/s)
Visibility:
Ceiling:
at least 12,000 feet AGL
2,500 feet AGL
Clouds:
Few Clouds at 2,500 feet AGL
Broken Cloud Cover at 2,500 feet AGL
Weather:
Moderate In Vicinity Shower(s)
TAF text:
2518/2523 15009KT 8000 -TSRA BKN020CB BECMG 2522/2523 15006KT 9999 NSW SCT250 QNH3007INS TX32/2520Z TN22/2508Z
Forecast period:
Sunday Jun 26 2016 18:00 UTC - Sunday Jun 26 2016 23:00 UTC
Forecast type:
FROM: standard forecast or significant change
Winds:
from the SSE (150 degrees) at 6.9 mph (6 knots: 3.1 m/s)
Visibility:
Ceiling:
at least 12,000 feet AGL
Clouds:
Scattered Clouds at 25,000 feet AGL
Weather:
Light Thunderstorm Rain
FBO's on the Field
FBO Company Facility Photos Services Transportation Aviation Fuel Prices: Prices include tax
Catering Weather Repair Courtesy Rental Type 100LL JetA JetA+ MOGAS 8087
 
Bay Area Aviation Inc

This FBO has not yet been rated
FS:Avfuel
Last Updated: Jun-03
Login to update fuel prices
SS:
Contact Bay Area Aviation IncMore FBO Information
 
Add another FBO Facility Photos Catering Weather Repair Courtesy Rental Type 100LL JetA JetA+ MOGAS 8087
Services Transportation Aviation Fuel Prices: Prices include tax


model-print
model-print
model-print
model-print